createdAt,value
2023-01-13T00:00:53.578Z,99194.28
2023-01-13T00:01:55.350Z,99186.22
2023-01-13T00:02:57.119Z,99183.25
2023-01-13T00:04:00.158Z,99187.13
2023-01-13T00:05:01.973Z,99188.84
2023-01-13T00:06:04.514Z,99194.81
2023-01-13T00:07:06.270Z,99203.63
2023-01-13T00:08:08.114Z,99204.25
2023-01-13T00:09:09.914Z,99193.94
2023-01-13T00:10:11.850Z,99199.44
2023-01-13T00:11:13.611Z,99191.91
2023-01-13T00:12:15.420Z,99202.00
2023-01-13T00:13:17.191Z,99201.19
2023-01-13T00:14:18.996Z,99190.69
2023-01-13T00:15:20.790Z,99192.31
2023-01-13T00:16:22.628Z,99199.09
2023-01-13T00:17:24.487Z,99200.59
2023-01-13T00:18:26.861Z,99192.13
2023-01-13T00:19:28.661Z,99190.00
2023-01-13T00:20:30.441Z,99184.28
2023-01-13T00:21:32.340Z,99180.97
2023-01-13T00:22:35.347Z,99187.72
2023-01-13T00:23:37.363Z,99187.56
2023-01-13T00:24:39.217Z,99173.53
2023-01-13T00:25:40.988Z,99191.28
2023-01-13T00:26:42.777Z,99189.47
2023-01-13T00:27:44.558Z,99195.56
2023-01-13T00:28:46.719Z,99183.28
2023-01-13T00:29:48.517Z,99192.47
2023-01-13T00:30:50.366Z,99190.00
2023-01-13T00:31:52.222Z,99177.41
2023-01-13T00:32:54.094Z,99198.06
2023-01-13T00:34:00.818Z,99186.66
2023-01-13T00:35:02.598Z,99179.94
2023-01-13T00:36:06.325Z,99181.22
2023-01-13T00:37:08.493Z,99197.06
2023-01-13T00:38:10.281Z,99190.53
2023-01-13T00:39:12.138Z,99192.81
2023-01-13T00:40:14.241Z,99185.03
2023-01-13T00:41:18.408Z,99190.34
2023-01-13T00:42:38.630Z,99202.31
2023-01-13T00:43:40.943Z,99189.19
2023-01-13T00:44:42.708Z,99186.75
2023-01-13T00:45:44.805Z,99191.19
2023-01-13T00:46:46.602Z,99193.97
2023-01-13T00:47:48.526Z,99193.63
2023-01-13T00:48:51.760Z,99191.66
2023-01-13T00:49:53.599Z,99187.56
2023-01-13T00:51:04.338Z,99191.34
2023-01-13T00:52:06.236Z,99181.03
2023-01-13T00:53:08.046Z,99187.38
2023-01-13T00:54:09.967Z,99187.22
2023-01-13T00:55:11.771Z,99192.47
2023-01-13T00:56:18.117Z,99192.94
2023-01-13T00:57:20.031Z,99180.66
2023-01-13T00:58:21.802Z,99189.31
2023-01-13T00:59:23.860Z,99178.34
2023-01-13T01:00:32.048Z,99186.13
2023-01-13T01:01:34.026Z,99175.34
2023-01-13T01:02:36.069Z,99186.13
2023-01-13T01:03:38.437Z,99191.28
2023-01-13T01:04:40.221Z,99189.31
2023-01-13T01:05:42.051Z,99195.00
2023-01-13T01:06:43.914Z,99182.78
2023-01-13T01:07:45.716Z,99173.78
2023-01-13T01:08:47.682Z,99185.94
2023-01-13T01:09:50.107Z,99187.84
2023-01-13T01:11:07.674Z,99185.94
2023-01-13T01:12:09.471Z,99185.94
2023-01-13T01:13:14.949Z,99190.47
2023-01-13T01:14:16.723Z,99184.84
2023-01-13T01:15:18.501Z,99187.69
2023-01-13T01:16:22.237Z,99190.47
2023-01-13T01:17:24.053Z,99184.84
2023-01-13T01:18:26.291Z,99181.66
2023-01-13T01:19:28.064Z,99184.66
2023-01-13T01:20:29.843Z,99182.47
2023-01-13T01:21:32.176Z,99183.03
2023-01-13T01:22:34.053Z,99178.41
2023-01-13T01:23:37.054Z,99191.53
2023-01-13T01:24:38.844Z,99178.41
2023-01-13T01:25:40.621Z,99174.94
2023-01-13T01:26:42.544Z,99182.03
2023-01-13T01:27:44.311Z,99176.97
2023-01-13T01:28:46.811Z,99173.88
2023-01-13T01:29:48.592Z,99177.97
2023-01-13T01:30:51.500Z,99175.50
2023-01-13T01:31:53.747Z,99184.94
2023-01-13T01:32:57.438Z,99183.47
2023-01-13T01:34:00.134Z,99176.97
2023-01-13T01:35:01.918Z,99182.22
2023-01-13T01:36:04.688Z,99192.34
2023-01-13T01:37:06.542Z,99189.94
2023-01-13T01:38:08.376Z,99183.66
2023-01-13T01:39:10.595Z,99181.03
2023-01-13T01:40:12.721Z,99176.28
2023-01-13T01:41:20.479Z,99185.63
2023-01-13T01:42:41.502Z,99184.09
2023-01-13T01:43:59.532Z,99188.09
2023-01-13T01:45:15.242Z,99183.19
2023-01-13T01:46:17.574Z,99182.53
2023-01-13T01:47:20.610Z,99185.50
2023-01-13T01:48:22.392Z,99181.06
2023-01-13T01:49:33.193Z,99168.28
2023-01-13T01:50:36.317Z,99179.09
2023-01-13T01:52:18.400Z,99186.16
2023-01-13T01:53:21.161Z,99188.84
2023-01-13T01:54:32.589Z,99184.88
2023-01-13T01:55:37.200Z,99183.06
2023-01-13T01:56:42.116Z,99177.00
2023-01-13T01:57:53.462Z,99184.69
2023-01-13T01:58:55.157Z,99178.34
2023-01-13T02:00:01.174Z,99178.69
2023-01-13T02:01:03.139Z,99183.94
2023-01-13T02:02:05.257Z,99181.31
2023-01-13T02:03:09.183Z,99188.38
2023-01-13T02:04:25.886Z,99188.91
2023-01-13T02:05:27.721Z,99183.38
2023-01-13T02:06:30.254Z,99185.19
2023-01-13T02:07:34.615Z,99182.66
2023-01-13T02:08:40.332Z,99188.72
2023-01-13T02:09:42.195Z,99184.47
2023-01-13T02:10:49.119Z,99178.94
2023-01-13T02:12:23.170Z,99188.22
2023-01-13T02:13:24.971Z,99168.72
2023-01-13T02:14:29.186Z,99175.44
2023-01-13T02:15:42.467Z,99183.31
2023-01-13T02:17:27.520Z,99183.94
2023-01-13T02:18:45.566Z,99183.88
2023-01-13T02:20:16.945Z,99189.38
2023-01-13T02:21:40.418Z,99181.03
2023-01-13T02:23:07.346Z,99187.53
2023-01-13T02:24:54.191Z,99173.66
2023-01-13T02:26:14.976Z,99188.25
2023-01-13T02:27:19.854Z,99192.31
2023-01-13T02:29:01.148Z,99188.97
2023-01-13T02:30:59.574Z,99193.59
2023-01-13T02:32:13.805Z,99191.13
2023-01-13T02:33:59.966Z,99196.34
2023-01-13T02:35:12.690Z,99204.22
2023-01-13T02:36:39.362Z,99200.78
2023-01-13T02:37:44.017Z,99201.75
2023-01-13T02:38:57.784Z,99200.13
2023-01-13T02:40:30.788Z,99203.03
2023-01-13T02:41:59.528Z,99205.66
2023-01-13T02:43:47.971Z,99206.38
2023-01-13T02:45:29.092Z,99205.72
2023-01-13T02:46:36.156Z,99210.31
2023-01-13T02:47:42.489Z,99207.06
2023-01-13T02:48:48.045Z,99209.50
2023-01-13T02:50:02.807Z,99217.50
2023-01-13T02:51:09.703Z,99199.66
2023-01-13T02:52:34.409Z,99202.00
2023-01-13T02:53:43.035Z,99199.38
2023-01-13T02:54:51.614Z,99216.34
2023-01-13T02:55:56.417Z,99214.81
2023-01-13T02:57:01.119Z,99218.56
2023-01-13T02:58:06.439Z,99209.22
2023-01-13T02:59:09.491Z,99213.41
2023-01-13T03:00:13.598Z,99213.06
2023-01-13T03:01:15.416Z,99208.78
2023-01-13T03:02:21.580Z,99216.31
2023-01-13T03:03:23.790Z,99213.88
2023-01-13T03:04:49.703Z,99216.94
2023-01-13T03:05:55.139Z,99180.81
2023-01-13T03:07:31.073Z,99199.78
2023-01-13T03:08:55.037Z,99218.91
2023-01-13T03:10:25.243Z,99211.84
2023-01-13T03:11:33.651Z,99202.41
2023-01-13T03:12:38.099Z,99213.34
2023-01-13T03:13:47.789Z,99214.41
2023-01-13T03:14:58.283Z,99211.44
2023-01-13T03:16:06.333Z,99211.28
2023-01-13T03:17:13.848Z,99211.44
2023-01-13T03:18:36.070Z,99207.00
2023-01-13T03:19:53.970Z,99208.84
2023-01-13T03:21:28.101Z,99201.47
2023-01-13T03:22:41.255Z,99205.56
2023-01-13T03:23:58.956Z,99209.00
2023-01-13T03:25:29.981Z,99209.00
2023-01-13T03:26:56.798Z,99202.09
2023-01-13T03:28:06.957Z,99184.50
2023-01-13T03:29:31.831Z,99202.44
2023-01-13T03:30:48.590Z,99204.72
2023-01-13T03:32:12.685Z,99207.88
2023-01-13T03:33:24.214Z,99206.88
2023-01-13T03:34:37.333Z,99200.81
2023-01-13T03:35:44.052Z,99209.34
2023-01-13T03:36:51.250Z,99201.63
2023-01-13T03:38:00.523Z,99204.00
2023-01-13T03:39:11.682Z,99202.34
2023-01-13T03:40:18.731Z,99207.25
2023-01-13T03:41:30.414Z,99189.56
2023-01-13T03:42:36.561Z,99198.38
2023-01-13T03:44:02.445Z,99203.16
2023-01-13T03:45:12.617Z,99201.53
2023-01-13T03:46:29.911Z,99204.31
2023-01-13T03:47:36.861Z,99198.75
2023-01-13T03:48:43.673Z,99203.03
2023-01-13T03:49:53.724Z,99207.13
2023-01-13T03:51:03.069Z,99210.41
2023-01-13T03:52:10.028Z,99208.00
2023-01-13T03:53:19.016Z,99216.63
2023-01-13T03:54:23.937Z,99216.31
2023-01-13T03:55:31.931Z,99217.78
2023-01-13T03:56:43.448Z,99212.06
2023-01-13T03:58:29.255Z,99214.00
2023-01-13T03:59:38.447Z,99209.56
2023-01-13T04:01:00.351Z,99199.59
2023-01-13T04:02:14.505Z,99203.84
2023-01-13T04:03:34.212Z,99204.56
2023-01-13T04:04:52.260Z,99210.09
2023-01-13T04:06:04.334Z,99202.59
2023-01-13T04:07:15.768Z,99212.03
2023-01-13T04:08:22.087Z,99222.22
2023-01-13T04:09:29.607Z,99222.69
2023-01-13T04:10:47.890Z,99219.34
2023-01-13T04:11:54.812Z,99220.81
2023-01-13T04:13:02.674Z,99217.38
2023-01-13T04:14:08.507Z,99221.97
2023-01-13T04:15:10.673Z,99212.44
2023-01-13T04:16:13.334Z,99219.75
2023-01-13T04:17:16.565Z,99214.06
2023-01-13T04:18:22.445Z,99219.75
2023-01-13T04:19:24.221Z,99215.50
2023-01-13T04:20:25.922Z,99219.59
2023-01-13T04:21:28.402Z,99224.16
2023-01-13T04:22:30.127Z,99210.41
2023-01-13T04:23:32.832Z,99218.38
2023-01-13T04:24:34.546Z,99206.13
2023-01-13T04:25:36.841Z,99212.69
2023-01-13T04:26:38.600Z,99205.31
2023-01-13T04:27:40.287Z,99219.09
2023-01-13T04:28:41.970Z,99210.69
2023-01-13T04:29:43.682Z,99211.22
2023-01-13T04:30:46.022Z,99221.00
2023-01-13T04:31:47.746Z,99215.41
2023-01-13T04:32:49.471Z,99223.41
2023-01-13T04:33:51.211Z,99215.72
2023-01-13T04:34:52.970Z,99212.78
2023-01-13T04:35:55.308Z,99218.19
2023-01-13T04:36:57.051Z,99215.94
2023-01-13T04:38:12.079Z,99198.59
2023-01-13T04:39:13.842Z,99216.94
2023-01-13T04:40:15.985Z,99224.81
2023-01-13T04:41:17.692Z,99219.75
2023-01-13T04:42:19.413Z,99233.03
2023-01-13T04:43:21.295Z,99225.31
2023-01-13T04:44:23.044Z,99219.09
2023-01-13T04:45:24.942Z,99215.47
2023-01-13T04:46:26.829Z,99232.78
2023-01-13T04:47:28.607Z,99230.97
2023-01-13T04:48:30.316Z,99230.00
2023-01-13T04:49:32.047Z,99229.00
2023-01-13T04:50:34.094Z,99233.50
2023-01-13T04:51:35.811Z,99238.84
2023-01-13T04:52:38.519Z,99233.91
2023-01-13T04:53:40.235Z,99241.78
2023-01-13T04:54:41.963Z,99241.97
2023-01-13T04:55:44.604Z,99248.66
2023-01-13T04:56:46.371Z,99242.72
2023-01-13T04:57:48.120Z,99238.75
2023-01-13T04:58:49.821Z,99249.25
2023-01-13T04:59:52.176Z,99240.44
2023-01-13T05:00:55.102Z,99234.72
2023-01-13T05:01:56.911Z,99239.44
2023-01-13T05:02:59.639Z,99231.72
2023-01-13T05:04:01.357Z,99235.81
2023-01-13T05:05:03.255Z,99236.16
2023-01-13T05:06:05.121Z,99241.06
2023-01-13T05:07:06.889Z,99243.34
2023-01-13T05:08:09.213Z,99246.44
2023-01-13T05:09:12.527Z,99248.91
2023-01-13T05:10:14.414Z,99248.59
2023-01-13T05:11:34.945Z,99250.72
2023-01-13T05:12:55.507Z,99243.75
2023-01-13T05:14:16.050Z,99244.03
2023-01-13T05:15:36.553Z,99254.50
2023-01-13T05:16:56.980Z,99255.84
2023-01-13T05:17:59.133Z,99259.09
2023-01-13T05:19:00.848Z,99258.63
2023-01-13T05:20:02.729Z,99259.41
2023-01-13T05:21:04.445Z,99264.28
2023-01-13T05:22:24.661Z,99253.34
2023-01-13T05:23:45.242Z,99253.69
2023-01-13T05:25:05.844Z,99262.06
2023-01-13T05:26:07.759Z,99268.63
2023-01-13T05:27:09.937Z,99267.63
2023-01-13T05:28:11.822Z,99268.28
2023-01-13T05:29:13.618Z,99257.78
2023-01-13T05:30:15.868Z,99275.16
2023-01-13T05:31:17.590Z,99265.00
2023-01-13T05:32:19.747Z,99266.56
2023-01-13T05:33:21.550Z,99270.00
2023-01-13T05:34:23.283Z,99276.25
2023-01-13T05:35:25.246Z,99269.38
2023-01-13T05:36:26.946Z,99256.31
2023-01-13T05:37:28.759Z,99272.97
2023-01-13T05:38:30.491Z,99261.31
2023-01-13T05:39:52.140Z,99269.19
2023-01-13T05:41:12.248Z,99273.31
2023-01-13T05:42:34.183Z,99267.47
2023-01-13T05:43:36.026Z,99268.53
2023-01-13T05:44:37.898Z,99276.44
2023-01-13T05:45:39.607Z,99269.53
2023-01-13T05:46:42.120Z,99270.53
2023-01-13T05:47:43.879Z,99271.81
2023-01-13T05:48:45.860Z,99274.97
2023-01-13T05:49:47.560Z,99277.41
2023-01-13T05:50:49.741Z,99272.47
2023-01-13T05:51:51.467Z,99275.75
2023-01-13T05:52:53.156Z,99277.38
2023-01-13T05:53:54.938Z,99271.75
2023-01-13T05:54:56.629Z,99280.75
2023-01-13T05:55:58.565Z,99271.75
2023-01-13T05:57:00.268Z,99272.22
2023-01-13T05:58:02.025Z,99277.94
2023-01-13T05:59:04.662Z,99284.03
2023-01-13T06:00:07.116Z,99276.00
2023-01-13T06:01:09.704Z,99287.13
2023-01-13T06:02:11.461Z,99281.47
2023-01-13T06:03:14.438Z,99262.53
2023-01-13T06:04:16.301Z,99279.25
2023-01-13T06:05:18.003Z,99272.88
2023-01-13T06:06:19.689Z,99279.59
2023-01-13T06:07:21.392Z,99278.94
2023-01-13T06:08:23.097Z,99271.41
2023-01-13T06:09:24.925Z,99277.41
2023-01-13T06:10:27.746Z,99285.75
2023-01-13T06:11:29.433Z,99276.13
2023-01-13T06:12:31.115Z,99281.66
2023-01-13T06:13:32.839Z,99289.38
2023-01-13T06:14:40.238Z,99293.16
2023-01-13T06:15:42.042Z,99282.03
2023-01-13T06:16:45.683Z,99286.31
2023-01-13T06:17:47.395Z,99288.63
2023-01-13T06:18:49.086Z,99288.44
2023-01-13T06:19:51.282Z,99288.09
2023-01-13T06:20:53.124Z,99289.75
2023-01-13T06:21:57.936Z,99290.44
2023-01-13T06:23:00.558Z,99277.38
2023-01-13T06:24:02.248Z,99301.75
2023-01-13T06:25:04.550Z,99291.94
2023-01-13T06:26:16.100Z,99298.63
2023-01-13T06:27:18.458Z,99303.56
2023-01-13T06:28:20.282Z,99297.84
2023-01-13T06:29:21.982Z,99274.78
2023-01-13T06:30:23.855Z,99307.66
2023-01-13T06:31:26.364Z,99307.19
2023-01-13T06:32:33.726Z,99304.56
2023-01-13T06:33:49.515Z,99310.13
2023-01-13T06:34:58.578Z,99309.13
2023-01-13T06:36:06.157Z,99303.16
2023-01-13T06:37:07.985Z,99278.19
2023-01-13T06:38:13.366Z,99312.38
2023-01-13T06:39:19.068Z,99311.50
2023-01-13T06:40:21.396Z,99308.41
2023-01-13T06:41:44.283Z,99320.47
2023-01-13T06:43:04.604Z,99313.97
2023-01-13T06:44:06.325Z,99288.97
2023-01-13T06:45:08.720Z,99316.03
2023-01-13T06:46:10.500Z,99318.84
2023-01-13T06:47:12.275Z,99324.56
2023-01-13T06:48:14.466Z,99321.41
2023-01-13T06:49:16.189Z,99324.38
2023-01-13T06:50:19.039Z,99322.41
2023-01-13T06:51:20.866Z,99326.03
2023-01-13T06:52:23.647Z,99320.09
2023-01-13T06:53:25.457Z,99316.03
2023-01-13T06:54:27.891Z,99320.44
2023-01-13T06:55:29.702Z,99327.31
2023-01-13T06:56:31.459Z,99329.94
2023-01-13T06:57:33.207Z,99333.38
2023-01-13T06:58:34.966Z,99339.47
2023-01-13T06:59:36.712Z,99335.13
2023-01-13T07:00:38.636Z,99318.31
2023-01-13T07:01:40.565Z,99333.84
2023-01-13T07:02:42.367Z,99337.41
2023-01-13T07:03:44.124Z,99333.78
2023-01-13T07:04:46.904Z,99334.31
2023-01-13T07:05:56.162Z,99341.38
2023-01-13T07:06:57.903Z,99339.91
2023-01-13T07:07:59.672Z,99334.31
2023-01-13T07:09:01.359Z,99342.38
2023-01-13T07:10:04.011Z,99341.03
2023-01-13T07:11:06.014Z,99340.50
2023-01-13T07:12:07.991Z,99341.75
2023-01-13T07:13:28.551Z,99345.84
2023-01-13T07:14:49.153Z,99345.13
2023-01-13T07:15:59.025Z,99350.63
2023-01-13T07:17:00.832Z,99346.03
2023-01-13T07:18:03.294Z,99355.56
2023-01-13T07:19:04.999Z,99354.25
2023-01-13T07:20:07.549Z,99336.25
2023-01-13T07:21:12.080Z,99352.22
2023-01-13T07:22:14.066Z,99351.09
2023-01-13T07:23:15.760Z,99354.03
2023-01-13T07:24:17.594Z,99351.94
2023-01-13T07:25:19.333Z,99350.47
2023-01-13T07:26:21.138Z,99338.06
2023-01-13T07:27:22.861Z,99340.38
2023-01-13T07:28:25.802Z,99333.78
2023-01-13T07:29:27.509Z,99350.41
2023-01-13T07:30:29.304Z,99347.97
2023-01-13T07:31:31.141Z,99334.44
2023-01-13T07:32:33.827Z,99342.94
2023-01-13T07:33:35.687Z,99343.56
2023-01-13T07:34:37.439Z,99318.44
2023-01-13T07:35:39.203Z,99343.13
2023-01-13T07:36:40.908Z,99350.63
2023-01-13T07:37:42.624Z,99353.09
2023-01-13T07:38:44.832Z,99337.44
2023-01-13T07:39:46.531Z,99347.78
2023-01-13T07:40:48.234Z,99350.06
2023-01-13T07:42:08.553Z,99350.72
2023-01-13T07:43:31.409Z,99348.56
2023-01-13T07:44:33.193Z,99348.19
2023-01-13T07:45:34.931Z,99348.25
2023-01-13T07:46:37.776Z,99340.38
2023-01-13T07:47:40.097Z,99350.81
2023-01-13T07:48:41.935Z,99351.09
2023-01-13T07:49:43.633Z,99356.38
2023-01-13T07:50:45.353Z,99348.81
2023-01-13T07:51:48.321Z,99349.81
2023-01-13T07:52:51.251Z,99343.00
2023-01-13T07:53:52.980Z,99348.19
2023-01-13T07:54:54.752Z,99351.19
2023-01-13T07:55:57.902Z,99346.53
2023-01-13T07:56:59.627Z,99354.25
2023-01-13T07:58:01.332Z,99355.06
2023-01-13T07:59:03.323Z,99358.34
2023-01-13T08:00:05.702Z,99355.19
2023-01-13T08:01:09.639Z,99353.09
2023-01-13T08:02:13.260Z,99358.00
2023-01-13T08:03:15.022Z,99355.72
2023-01-13T08:04:16.751Z,99359.63
2023-01-13T08:05:18.619Z,99367.53
2023-01-13T08:06:20.320Z,99362.97
2023-01-13T08:07:22.109Z,99361.44
2023-01-13T08:08:23.814Z,99364.25
2023-01-13T08:09:25.560Z,99368.53
2023-01-13T08:10:27.307Z,99367.53
2023-01-13T08:11:29.282Z,99359.28
2023-01-13T08:12:52.806Z,99361.53
2023-01-13T08:13:57.989Z,99364.28
2023-01-13T08:14:59.711Z,99361.94
2023-01-13T08:16:06.634Z,99359.13
2023-01-13T08:17:09.442Z,99366.97
2023-01-13T08:18:12.085Z,99370.22
2023-01-13T08:19:13.829Z,99362.13
2023-01-13T08:20:15.888Z,99357.50
2023-01-13T08:21:17.857Z,99357.97
2023-01-13T08:22:19.559Z,99365.59
2023-01-13T08:23:22.588Z,99376.84
2023-01-13T08:24:24.441Z,99376.03
2023-01-13T08:25:27.815Z,99369.16
2023-01-13T08:26:29.516Z,99367.16
2023-01-13T08:27:31.235Z,99368.78
2023-01-13T08:28:33.188Z,99367.84
2023-01-13T08:29:34.960Z,99363.59
2023-01-13T08:30:36.857Z,99375.66
2023-01-13T08:31:38.589Z,99366.41
2023-01-13T08:32:40.313Z,99375.47
2023-01-13T08:33:42.502Z,99373.66
2023-01-13T08:34:44.236Z,99366.88
2023-01-13T08:35:46.197Z,99368.63
2023-01-13T08:36:50.354Z,99363.75
2023-01-13T08:37:52.422Z,99360.38
2023-01-13T08:38:54.167Z,99370.09
2023-01-13T08:39:55.867Z,99371.81
2023-01-13T08:40:57.805Z,99369.63
2023-01-13T08:41:59.592Z,99367.00
2023-01-13T08:43:01.557Z,99367.63
2023-01-13T08:44:03.453Z,99343.78
2023-01-13T08:45:06.502Z,99369.44
2023-01-13T08:46:08.333Z,99367.53
2023-01-13T08:47:10.217Z,99370.44
2023-01-13T08:48:12.055Z,99371.44
2023-01-13T08:49:13.778Z,99373.69
2023-01-13T08:50:15.637Z,99370.50
2023-01-13T08:51:17.383Z,99368.97
2023-01-13T08:52:19.382Z,99368.22
2023-01-13T08:53:21.169Z,99373.38
2023-01-13T08:54:22.922Z,99365.72
2023-01-13T08:55:24.713Z,99374.53
2023-01-13T08:56:26.432Z,99376.41
2023-01-13T08:57:28.921Z,99373.03
2023-01-13T08:58:30.692Z,99375.72
2023-01-13T08:59:32.696Z,99380.44
2023-01-13T09:00:34.437Z,99375.50
2023-01-13T09:01:36.235Z,99378.56
2023-01-13T09:02:38.713Z,99367.66
2023-01-13T09:03:41.957Z,99379.09
2023-01-13T09:04:45.171Z,99380.19
2023-01-13T09:05:47.023Z,99375.09
2023-01-13T09:06:49.537Z,99373.94
2023-01-13T09:07:51.234Z,99385.31
2023-01-13T09:08:52.989Z,99376.22
2023-01-13T09:09:56.879Z,99383.56
2023-01-13T09:10:58.738Z,99379.28
2023-01-13T09:12:18.996Z,99383.41
2023-01-13T09:13:21.930Z,99370.41
2023-01-13T09:14:26.863Z,99380.03
2023-01-13T09:15:28.732Z,99369.47
2023-01-13T09:16:30.565Z,99370.97
2023-01-13T09:17:32.343Z,99364.97
2023-01-13T09:18:34.032Z,99377.19
2023-01-13T09:19:36.076Z,99371.16
2023-01-13T09:20:38.269Z,99370.53
2023-01-13T09:21:40.071Z,99358.56
2023-01-13T09:22:41.891Z,99364.25
2023-01-13T09:23:43.593Z,99363.69
2023-01-13T09:24:46.398Z,99370.41
2023-01-13T09:25:49.293Z,99367.63
2023-01-13T09:26:51.530Z,99367.28
2023-01-13T09:27:53.277Z,99371.41
2023-01-13T09:28:55.475Z,99369.97
2023-01-13T09:29:57.189Z,99360.41
2023-01-13T09:31:01.404Z,99357.19
2023-01-13T09:32:03.625Z,99359.63
2023-01-13T09:33:23.787Z,99360.66
2023-01-13T09:35:04.081Z,99364.53
2023-01-13T09:36:06.254Z,99363.31
2023-01-13T09:37:08.522Z,99369.44
2023-01-13T09:38:10.242Z,99348.69
2023-01-13T09:39:11.992Z,99363.75
2023-01-13T09:40:19.618Z,99352.78
2023-01-13T09:41:46.136Z,99351.97
2023-01-13T09:43:40.075Z,99343.88
2023-01-13T09:44:58.137Z,99352.19
2023-01-13T09:46:05.924Z,99358.50
2023-01-13T09:47:18.098Z,99346.28
2023-01-13T09:48:26.869Z,99354.84
2023-01-13T09:49:39.106Z,99347.31
2023-01-13T09:50:53.039Z,99354.22
2023-01-13T09:52:15.201Z,99349.31
2023-01-13T09:53:24.752Z,99343.63
2023-01-13T09:54:35.323Z,99332.84
2023-01-13T09:55:37.223Z,99349.13
2023-01-13T09:56:38.978Z,99350.38
2023-01-13T09:57:41.094Z,99341.63
2023-01-13T09:58:45.692Z,99344.47
2023-01-13T09:59:48.802Z,99347.50
2023-01-13T10:01:19.002Z,99344.63
2023-01-13T10:02:48.411Z,99334.47
2023-01-13T10:03:50.311Z,99332.84
2023-01-13T10:05:13.965Z,99337.34
2023-01-13T10:06:34.976Z,99339.78
2023-01-13T10:07:42.341Z,99337.53
2023-01-13T10:08:46.027Z,99335.09
2023-01-13T10:09:53.974Z,99330.63
2023-01-13T10:11:24.282Z,99335.72
2023-01-13T10:12:45.643Z,99333.69
2023-01-13T10:13:51.065Z,99328.81
2023-01-13T10:14:56.061Z,99333.72
2023-01-13T10:16:24.404Z,99329.63
2023-01-13T10:17:54.637Z,99321.50
2023-01-13T10:19:06.700Z,99321.69
2023-01-13T10:20:30.302Z,99320.28
2023-01-13T10:21:53.303Z,99317.63
2023-01-13T10:23:13.411Z,99318.03
2023-01-13T10:24:30.127Z,99313.56
2023-01-13T10:25:50.202Z,99312.56
2023-01-13T10:27:05.649Z,99307.28
2023-01-13T10:28:17.683Z,99304.44
2023-01-13T10:29:28.813Z,99300.97
2023-01-13T10:30:36.151Z,99303.63
2023-01-13T10:31:37.858Z,99300.97
2023-01-13T10:32:42.986Z,99292.41
2023-01-13T10:33:44.680Z,99300.38
2023-01-13T10:34:52.059Z,99296.69
2023-01-13T10:36:15.775Z,99289.94
2023-01-13T10:37:23.420Z,99282.16
2023-01-13T10:38:35.669Z,99275.84
2023-01-13T10:39:47.612Z,99286.22
2023-01-13T10:41:02.257Z,99289.25
2023-01-13T10:42:05.457Z,99287.59
2023-01-13T10:43:07.215Z,99287.59
2023-01-13T10:44:17.379Z,99281.28
2023-01-13T10:45:25.271Z,99274.09
2023-01-13T10:46:28.169Z,99288.31
2023-01-13T10:47:35.910Z,99276.06
2023-01-13T10:48:56.032Z,99274.44
2023-01-13T10:50:13.134Z,99279.38
2023-01-13T10:51:25.920Z,99281.38
2023-01-13T10:52:33.269Z,99280.72
2023-01-13T10:53:46.442Z,99275.19
2023-01-13T10:54:57.187Z,99274.16
2023-01-13T10:56:01.818Z,99280.22
2023-01-13T10:57:14.781Z,99269.41
2023-01-13T10:58:21.415Z,99276.69
2023-01-13T10:59:27.013Z,99269.34
2023-01-13T11:00:33.560Z,99267.69
2023-01-13T11:01:35.460Z,99277.09
2023-01-13T11:02:37.594Z,99273.22
2023-01-13T11:03:43.163Z,99277.72
2023-01-13T11:04:54.077Z,99278.09
2023-01-13T11:05:58.279Z,99276.22
2023-01-13T11:07:01.117Z,99273.75
2023-01-13T11:08:02.936Z,99275.31
2023-01-13T11:09:20.260Z,99271.34
2023-01-13T11:10:31.434Z,99265.25
2023-01-13T11:11:45.685Z,99272.13
2023-01-13T11:12:59.467Z,99273.34
2023-01-13T11:14:23.819Z,99268.78
2023-01-13T11:15:38.666Z,99271.22
2023-01-13T11:16:53.034Z,99276.00
2023-01-13T11:18:01.749Z,99273.91
2023-01-13T11:19:14.477Z,99267.78
2023-01-13T11:20:23.653Z,99269.38
2023-01-13T11:21:33.402Z,99271.66
2023-01-13T11:22:45.143Z,99274.69
2023-01-13T11:24:14.790Z,99269.78
2023-01-13T11:25:33.890Z,99259.38
2023-01-13T11:26:51.623Z,99259.53
2023-01-13T11:28:01.012Z,99257.31
2023-01-13T11:29:18.050Z,99231.34
2023-01-13T11:30:29.830Z,99257.47
2023-01-13T11:31:36.978Z,99257.66
2023-01-13T11:33:08.845Z,99250.50
2023-01-13T11:34:32.695Z,99256.03
2023-01-13T11:35:40.826Z,99241.88
2023-01-13T11:36:50.834Z,99253.06
2023-01-13T11:37:59.184Z,99252.88
2023-01-13T11:39:23.474Z,99252.44
2023-01-13T11:40:32.924Z,99250.00
2023-01-13T11:41:47.550Z,99248.78
2023-01-13T11:43:04.475Z,99250.13
2023-01-13T11:44:38.688Z,99251.97
2023-01-13T11:45:44.503Z,99253.38
2023-01-13T11:46:49.994Z,99245.84
2023-01-13T11:47:57.761Z,99243.59
2023-01-13T11:49:01.035Z,99243.41
2023-01-13T11:50:03.414Z,99253.59
2023-01-13T11:51:13.926Z,99257.31
2023-01-13T11:52:31.225Z,99251.66
2023-01-13T11:53:54.068Z,99261.84
2023-01-13T11:55:22.531Z,99250.41
2023-01-13T11:57:02.403Z,99255.25
2023-01-13T11:58:24.020Z,99263.00
2023-01-13T11:59:50.639Z,99255.09
2023-01-13T12:01:36.870Z,99258.00
2023-01-13T12:03:17.295Z,99254.41
2023-01-13T12:04:28.237Z,99254.25
2023-01-13T12:05:48.344Z,99254.66
2023-01-13T12:07:23.291Z,99252.69
2023-01-13T12:08:48.083Z,99258.00
2023-01-13T12:10:01.571Z,99255.16
2023-01-13T12:11:15.196Z,99253.78
2023-01-13T12:12:40.924Z,99259.84
2023-01-13T12:14:20.640Z,99250.03
2023-01-13T12:15:22.600Z,99248.63
2023-01-13T12:16:30.656Z,99248.41
2023-01-13T12:18:10.217Z,99252.69
2023-01-13T12:19:29.932Z,99253.53
2023-01-13T12:21:03.948Z,99246.03
2023-01-13T12:22:28.140Z,99245.22
2023-01-13T12:24:06.119Z,99245.41
2023-01-13T12:25:21.401Z,99240.34
2023-01-13T12:26:23.746Z,99245.03
2023-01-13T12:27:37.733Z,99246.03
2023-01-13T12:28:51.569Z,99243.41
2023-01-13T12:29:57.165Z,99237.72
2023-01-13T12:31:02.076Z,99241.75
2023-01-13T12:32:07.976Z,99238.22
2023-01-13T12:33:22.077Z,99245.59
2023-01-13T12:34:34.077Z,99240.53
2023-01-13T12:36:17.482Z,99240.34
2023-01-13T12:37:46.259Z,99243.59
2023-01-13T12:38:59.641Z,99242.19
2023-01-13T12:40:13.556Z,99238.91
2023-01-13T12:42:05.929Z,99245.44
2023-01-13T12:43:40.737Z,99223.50
2023-01-13T12:45:10.259Z,99245.41
2023-01-13T12:46:23.787Z,99239.34
2023-01-13T12:47:41.529Z,99238.91
2023-01-13T12:48:56.834Z,99246.03
2023-01-13T12:50:23.946Z,99243.78
2023-01-13T12:51:54.615Z,99247.47
2023-01-13T12:53:01.216Z,99241.34
2023-01-13T12:54:25.621Z,99247.88
2023-01-13T12:55:30.027Z,99246.44
2023-01-13T12:56:45.394Z,99251.13
2023-01-13T12:58:05.945Z,99248.84
2023-01-13T12:59:17.043Z,99253.94
2023-01-13T13:00:19.339Z,99248.22
2023-01-13T13:01:35.793Z,99250.44
2023-01-13T13:02:42.673Z,99257.38
2023-01-13T13:04:41.469Z,99251.00
2023-01-13T13:06:07.972Z,99255.06
2023-01-13T13:07:15.699Z,99243.13
2023-01-13T13:08:37.106Z,99250.44
2023-01-13T13:09:43.209Z,99250.25
2023-01-13T13:11:32.412Z,99242.94
2023-01-13T13:13:01.691Z,99258.03
2023-01-13T13:14:06.297Z,99247.88
2023-01-13T13:15:21.759Z,99247.47
2023-01-13T13:16:26.574Z,99256.41
2023-01-13T13:17:31.906Z,99247.25
2023-01-13T13:18:34.024Z,99257.66
2023-01-13T13:19:35.663Z,99257.47
2023-01-13T13:20:56.427Z,99257.47
2023-01-13T13:22:13.743Z,99256.25
2023-01-13T13:23:40.437Z,99245.91
2023-01-13T13:25:03.543Z,99249.16